Mount Holly, AR (71758)

1:38 AM CST on February 06, 2016 (GMT -0600)
South Arkansas Regional At Goodwin | | Change Station
CLOSE
Current Station
Airport
Location: El Dorado,
Elevation: 276 ft
Nearby Weather Stations
Active Advisory: Flood Warning

Elev 276 ft 33.22 °N, 92.81 °W | Updated 45 minutes ago

Partly Cloudy
Partly Cloudy
34 °F
Feels Like 34 °F
N
0
Wind Variable Wind from North

Today
High -- | Low -- °F
--% Chance of Precip.
Yesterday
High -- | Low -- °F
Precip. -- in
Pressure 30.35 in
Visibility 10.0 miles
Clouds Clear
Dew Point 26 °F
Humidity 73%
Rainfall 0.00 in
Snow Depth Not available.
7:04 AM 5:47 PM
Waning Crescent, 7% visible
METAR KELD 060653Z AUTO 00000KT 10SM CLR 01/M03 A3035 RMK AO2 SLP278 T00111033
Pressure 30.35 in
Visibility 10.0 miles
Clouds Clear
Dew Point 26 °F
Humidity 73%
Rainfall 0.00 in
Snow Depth Not available.
7:04 AM 5:47 PM
Waning Crescent, 7% visible
METAR KELD 060653Z AUTO 00000KT 10SM CLR 01/M03 A3035 RMK AO2 SLP278 T00111033

10-Day Weather Forecast

Almanac

Astronomy

Feb. 06, 2016 Rise Set
Actual Time
Civil Twilight
Nautical Twilight
Astronomical Twilight
Moon
Length of Visible Light
Length of Day
Tomorrow will be .
, % of the Moon is Illuminated

Today's Extremes

State Highs State Lows

Community

WunderPhotos

Upload Photos

1,890,933 photos uploaded!

WunderBlog® & News

Nearby

Air Quality

  Air Quality AQ Index Pollutant
Not available.

Snow Depth

Station Depth Elevation

Earthquake Activity

City Distance Mag. Time & Date
Minimum magnitude displayed is 2.5.

Coastal Water Temperatures

Place Temperature

Stations

Nearby Weather Stations

Station Location Temp. Windchill Dew Point Humidity Wind Precip. Elev Updated Type
                   

Watches & Warnings

Flood Warning
Issued: 10:20 AM CST Feb. 5, 2016 – National Weather Service

... The Flood Warning extended until Wednesday morning... the Flood
Warning continues for
the Ouachita River at Felsenthal, Arkansas.
* Until Wednesday morning... or until the warning is cancelled.
* At 945 am Friday the pool stage was 71.7 feet.
* Minor flooding is occurring and minor flooding is forecast.
* Flood pool stage is 70 feet.
* Forecast... the river will continue to fall to below flood stage by
early Tuesday morning.
* Impact... minor lowland flooding.


Lat... Lon 3300 9210 3311 9217 3318 9212 3307 9211 3300 9205